createdAt,value
2022-10-18T00:00:19.918Z,130.70
2022-10-18T00:02:46.976Z,125.72
2022-10-18T00:05:13.906Z,164.38
2022-10-18T00:07:40.872Z,131.35
2022-10-18T00:10:08.487Z,93.35
2022-10-18T00:12:36.893Z,119.07
2022-10-18T00:15:07.143Z,113.65
2022-10-18T00:17:38.611Z,138.55
2022-10-18T00:20:06.818Z,145.95
2022-10-18T00:22:37.166Z,103.97
2022-10-18T00:25:05.439Z,122.03
2022-10-18T00:27:33.119Z,103.25
2022-10-18T00:30:00.376Z,148.40
2022-10-18T00:32:28.107Z,124.10
2022-10-18T00:34:55.231Z,119.60
2022-10-18T00:37:22.121Z,115.10
2022-10-18T00:39:49.059Z,139.30
2022-10-18T00:42:21.566Z,115.10
2022-10-18T00:44:51.550Z,150.93
2022-10-18T00:47:19.991Z,130.82
2022-10-18T00:49:52.125Z,139.50
2022-10-18T00:52:29.072Z,120.22
2022-10-18T00:54:58.018Z,127.90
2022-10-18T00:57:26.198Z,90.15
2022-10-18T00:59:54.136Z,93.28
2022-10-18T01:02:21.891Z,85.43
2022-10-18T01:04:49.522Z,88.45
2022-10-18T01:07:38.499Z,85.25
2022-10-18T01:10:50.316Z,79.47
2022-10-18T01:13:53.233Z,77.15
2022-10-18T01:16:38.243Z,80.37
2022-10-18T01:19:44.524Z,57.33
2022-10-18T01:22:28.479Z,74.57
2022-10-18T01:25:11.075Z,85.10
2022-10-18T01:28:08.559Z,49.92
2022-10-18T01:30:46.156Z,72.63
2022-10-18T01:33:25.046Z,76.28
2022-10-18T01:36:00.115Z,67.45
2022-10-18T01:38:30.259Z,86.65
2022-10-18T01:40:58.524Z,63.50
2022-10-18T01:43:28.035Z,64.27
2022-10-18T01:45:57.072Z,58.42
2022-10-18T01:48:24.033Z,121.47
2022-10-18T01:50:53.040Z,80.15
2022-10-18T01:53:33.094Z,60.13
2022-10-18T01:56:20.376Z,51.70
2022-10-18T01:59:10.984Z,73.05
2022-10-18T02:02:24.435Z,75.55
2022-10-18T02:04:53.205Z,83.95
2022-10-18T02:07:55.306Z,98.60
2022-10-18T02:10:41.544Z,78.97
2022-10-18T02:13:12.957Z,90.15
2022-10-18T02:15:44.296Z,64.78
2022-10-18T02:18:21.292Z,57.65
2022-10-18T02:20:49.197Z,115.30
2022-10-18T02:23:22.352Z,62.20
2022-10-18T02:25:49.560Z,63.67
2022-10-18T02:28:16.528Z,75.07
2022-10-18T02:31:09.196Z,66.78
2022-10-18T02:34:00.766Z,59.88
2022-10-18T02:36:33.822Z,54.63
2022-10-18T02:39:08.136Z,50.63
2022-10-18T02:41:35.083Z,75.63
2022-10-18T02:44:02.124Z,62.55
2022-10-18T02:46:29.222Z,43.42
2022-10-18T02:48:56.091Z,49.03
2022-10-18T02:51:23.175Z,101.00
2022-10-18T02:53:50.048Z,56.45
2022-10-18T02:56:17.080Z,59.33
2022-10-18T02:58:43.963Z,49.90
2022-10-18T03:01:11.038Z,45.83
2022-10-18T03:03:38.004Z,48.58
2022-10-18T03:06:05.306Z,49.38
2022-10-18T03:08:32.274Z,41.28
2022-10-18T03:10:59.295Z,44.33
2022-10-18T03:13:26.264Z,40.50
2022-10-18T03:15:53.164Z,48.90
2022-10-18T03:18:20.035Z,43.25
2022-10-18T03:20:46.983Z,44.35
2022-10-18T03:23:13.860Z,37.83
2022-10-18T03:25:42.900Z,37.87
2022-10-18T03:28:12.593Z,34.70
2022-10-18T03:30:39.487Z,37.05
2022-10-18T03:33:07.302Z,43.53
2022-10-18T03:35:34.260Z,33.95
2022-10-18T03:38:01.113Z,42.67
2022-10-18T03:40:28.034Z,34.15
2022-10-18T03:42:54.920Z,42.20
2022-10-18T03:45:21.784Z,42.90
2022-10-18T03:47:48.660Z,40.53
2022-10-18T03:50:15.650Z,40.60
2022-10-18T03:52:42.526Z,33.10
2022-10-18T03:55:09.690Z,39.92
2022-10-18T03:57:36.579Z,39.97
2022-10-18T04:00:05.143Z,35.38
2022-10-18T04:02:32.188Z,33.50
2022-10-18T04:04:59.277Z,30.00
2022-10-18T04:07:26.180Z,29.88
2022-10-18T04:09:53.081Z,29.13
2022-10-18T04:12:20.017Z,22.40
2022-10-18T04:14:46.884Z,29.40
2022-10-18T04:17:13.802Z,27.02
2022-10-18T04:19:41.670Z,25.77
2022-10-18T04:22:09.587Z,26.95
2022-10-18T04:24:36.531Z,24.10
2022-10-18T04:27:05.939Z,28.27
2022-10-18T04:29:33.218Z,27.05
2022-10-18T04:32:00.646Z,25.52
2022-10-18T04:34:27.525Z,30.13
2022-10-18T04:36:54.483Z,26.23
2022-10-18T04:39:21.777Z,26.70
2022-10-18T04:41:48.641Z,35.45
2022-10-18T04:44:15.599Z,22.73
2022-10-18T04:46:42.498Z,26.75
2022-10-18T04:49:09.382Z,28.63
2022-10-18T04:51:37.327Z,28.23
2022-10-18T04:54:04.267Z,28.23
2022-10-18T04:56:31.139Z,36.15
2022-10-18T04:58:59.533Z,43.83
2022-10-18T05:01:26.616Z,46.53
2022-10-18T05:03:55.234Z,51.33
2022-10-18T05:06:23.011Z,46.15
2022-10-18T05:08:50.033Z,46.42
2022-10-18T05:11:16.999Z,38.45
2022-10-18T05:13:46.050Z,43.38
2022-10-18T05:16:16.024Z,39.83
2022-10-18T05:18:43.237Z,41.10
2022-10-18T05:21:10.307Z,37.20
2022-10-18T05:23:37.178Z,51.55
2022-10-18T05:26:07.077Z,34.42
2022-10-18T05:28:39.609Z,37.73
2022-10-18T05:31:10.098Z,40.33
2022-10-18T05:33:37.014Z,38.90
2022-10-18T05:36:04.627Z,34.83
2022-10-18T05:38:31.613Z,35.58
2022-10-18T05:40:59.560Z,34.23
2022-10-18T05:43:30.154Z,37.83
2022-10-18T05:45:57.116Z,38.40
2022-10-18T05:48:24.064Z,38.10
2022-10-18T05:50:51.407Z,36.83
2022-10-18T05:53:35.871Z,41.43
2022-10-18T05:56:04.247Z,41.55
2022-10-18T05:58:31.178Z,37.05
2022-10-18T06:01:02.179Z,43.55
2022-10-18T06:03:30.823Z,44.00
2022-10-18T06:06:06.002Z,43.17
2022-10-18T06:08:34.330Z,39.55
2022-10-18T06:11:10.317Z,46.78
2022-10-18T06:13:46.253Z,62.25
2022-10-18T06:16:15.771Z,41.40
2022-10-18T06:18:42.850Z,33.93
2022-10-18T06:21:10.439Z,53.55
2022-10-18T06:23:37.367Z,47.65
2022-10-18T06:26:07.797Z,57.92
2022-10-18T06:28:37.261Z,61.90
2022-10-18T06:31:06.086Z,51.60
2022-10-18T06:33:35.140Z,78.22
2022-10-18T06:36:15.958Z,47.05
2022-10-18T06:38:43.360Z,41.20
2022-10-18T06:41:11.120Z,48.17
2022-10-18T06:43:38.032Z,47.97
2022-10-18T06:46:08.029Z,51.70
2022-10-18T06:48:36.902Z,52.30
2022-10-18T06:51:06.811Z,42.15
2022-10-18T06:53:44.066Z,51.40
2022-10-18T06:56:20.246Z,49.93
2022-10-18T06:58:47.167Z,52.03
2022-10-18T07:01:16.805Z,38.00
2022-10-18T07:03:45.632Z,38.15
2022-10-18T07:06:14.844Z,32.28
2022-10-18T07:08:42.814Z,33.67
2022-10-18T07:11:17.700Z,59.60
2022-10-18T07:13:44.756Z,46.13
2022-10-18T07:16:18.171Z,48.45
2022-10-18T07:18:50.776Z,37.90
2022-10-18T07:21:21.767Z,28.63
2022-10-18T07:23:49.563Z,33.10
2022-10-18T07:26:23.062Z,42.20
2022-10-18T07:29:06.596Z,30.15
2022-10-18T07:31:33.749Z,33.08
2022-10-18T07:34:01.019Z,28.53
2022-10-18T07:36:27.944Z,33.55
2022-10-18T07:38:55.308Z,29.73
2022-10-18T07:41:22.924Z,26.13
2022-10-18T07:43:52.323Z,29.77
2022-10-18T07:46:21.864Z,31.17
2022-10-18T07:48:48.938Z,34.75
2022-10-18T07:51:15.916Z,45.10
2022-10-18T07:53:42.911Z,32.30
2022-10-18T07:56:16.418Z,36.58
2022-10-18T07:58:48.805Z,30.13
2022-10-18T08:01:16.155Z,30.65
2022-10-18T08:03:43.775Z,66.82
2022-10-18T08:06:13.534Z,45.50
2022-10-18T08:08:41.457Z,41.47
2022-10-18T08:11:12.753Z,38.80
2022-10-18T08:13:39.684Z,44.72
2022-10-18T08:16:10.565Z,39.17
2022-10-18T08:18:39.004Z,35.58
2022-10-18T08:21:08.876Z,36.42
2022-10-18T08:23:36.940Z,33.73
2022-10-18T08:26:07.875Z,36.92
2022-10-18T08:28:37.689Z,33.13
2022-10-18T08:31:12.721Z,39.30
2022-10-18T08:33:40.168Z,39.95
2022-10-18T08:36:10.577Z,42.77
2022-10-18T08:38:40.029Z,31.55
2022-10-18T08:41:37.955Z,33.53
2022-10-18T08:44:24.919Z,29.92
2022-10-18T08:47:06.073Z,31.42
2022-10-18T08:49:46.820Z,34.37
2022-10-18T08:52:43.309Z,30.60
2022-10-18T08:55:25.368Z,27.48
2022-10-18T08:57:52.844Z,33.08
2022-10-18T09:00:25.956Z,34.63
2022-10-18T09:03:40.284Z,34.63
2022-10-18T09:06:25.109Z,29.48
2022-10-18T09:09:23.880Z,28.52
2022-10-18T09:12:27.467Z,37.22
2022-10-18T09:15:12.543Z,28.33
2022-10-18T09:18:06.654Z,28.13
2022-10-18T09:20:57.324Z,33.35
2022-10-18T09:24:14.783Z,28.33
2022-10-18T09:26:48.787Z,27.30
2022-10-18T09:29:34.549Z,31.00
2022-10-18T09:32:32.451Z,28.23
2022-10-18T09:35:15.000Z,26.95
2022-10-18T09:37:43.748Z,25.40
2022-10-18T09:40:25.878Z,30.40
2022-10-18T09:43:21.103Z,21.67
2022-10-18T09:45:49.217Z,207.20
2022-10-18T09:48:29.713Z,20.92
2022-10-18T09:51:12.497Z,28.60
2022-10-18T09:54:01.579Z,28.80
2022-10-18T09:56:46.382Z,20.33
2022-10-18T09:59:44.496Z,15.83
2022-10-18T10:02:18.428Z,16.20
2022-10-18T10:04:45.394Z,17.65
2022-10-18T10:07:20.508Z,9.48
2022-10-18T10:09:57.465Z,14.10
2022-10-18T10:12:36.978Z,11.30
2022-10-18T10:15:23.131Z,10.70
2022-10-18T10:18:22.807Z,9.32
2022-10-18T10:20:56.176Z,8.27
2022-10-18T10:23:47.476Z,11.23
2022-10-18T10:26:38.649Z,16.30
2022-10-18T10:29:47.081Z,9.63
2022-10-18T10:32:20.264Z,9.65
2022-10-18T10:34:47.315Z,10.65
2022-10-18T10:37:32.785Z,12.90
2022-10-18T10:40:35.531Z,9.13
2022-10-18T10:43:44.804Z,9.25
2022-10-18T10:46:15.332Z,7.93
2022-10-18T10:49:15.408Z,9.45
2022-10-18T10:51:44.167Z,9.60
2022-10-18T10:54:24.351Z,9.93
2022-10-18T10:57:11.031Z,6.40
2022-10-18T10:59:51.038Z,12.45
2022-10-18T11:02:32.276Z,9.65
2022-10-18T11:05:29.226Z,9.02
2022-10-18T11:08:02.292Z,10.37
2022-10-18T11:10:35.086Z,9.68
2022-10-18T11:13:39.222Z,10.90
2022-10-18T11:16:50.133Z,9.82
2022-10-18T11:19:58.855Z,7.00
2022-10-18T11:22:29.756Z,10.47
2022-10-18T11:24:56.964Z,11.25
2022-10-18T11:27:58.490Z,8.75
2022-10-18T11:30:56.401Z,7.82
2022-10-18T11:34:09.885Z,8.52
2022-10-18T11:37:26.635Z,8.77
2022-10-18T11:39:59.691Z,11.50
2022-10-18T11:42:58.400Z,8.95
2022-10-18T11:45:42.435Z,7.13
2022-10-18T11:48:49.951Z,8.63
2022-10-18T11:51:38.642Z,12.13
2022-10-18T11:54:19.043Z,10.70
2022-10-18T11:57:02.121Z,6.18
2022-10-18T11:59:39.485Z,11.93
2022-10-18T12:02:51.458Z,6.10
2022-10-18T12:05:23.497Z,7.20
2022-10-18T12:08:07.466Z,8.23
2022-10-18T12:10:53.078Z,9.52
2022-10-18T12:13:50.560Z,9.82
2022-10-18T12:16:38.983Z,7.70
2022-10-18T12:19:27.228Z,7.87
2022-10-18T12:22:10.371Z,9.75
2022-10-18T12:24:38.192Z,8.75
2022-10-18T12:27:05.469Z,6.68
2022-10-18T12:29:50.442Z,7.70
2022-10-18T12:32:33.032Z,8.17
2022-10-18T12:35:16.532Z,6.72
2022-10-18T12:38:21.172Z,5.80
2022-10-18T12:40:54.010Z,7.65
2022-10-18T12:43:39.290Z,6.80
2022-10-18T12:46:13.617Z,6.30
2022-10-18T12:48:48.669Z,9.65
2022-10-18T12:51:19.833Z,8.18
2022-10-18T12:54:11.730Z,7.20
2022-10-18T12:56:42.110Z,5.97
2022-10-18T12:59:15.133Z,5.37
2022-10-18T13:01:51.523Z,8.98
2022-10-18T13:04:27.684Z,8.25
2022-10-18T13:07:21.584Z,8.35
2022-10-18T13:10:14.915Z,10.65
2022-10-18T13:13:38.155Z,8.63
2022-10-18T13:16:22.914Z,7.45
2022-10-18T13:19:11.812Z,7.43
2022-10-18T13:22:12.557Z,5.60
2022-10-18T13:24:47.597Z,8.02
2022-10-18T13:27:46.758Z,7.93
2022-10-18T13:30:31.539Z,8.10
2022-10-18T13:33:36.511Z,6.70
2022-10-18T13:36:31.017Z,7.97
2022-10-18T13:38:57.901Z,9.88
2022-10-18T13:41:55.082Z,7.80
2022-10-18T13:44:28.564Z,8.32
2022-10-18T13:46:55.389Z,10.65
2022-10-18T13:49:39.076Z,9.63
2022-10-18T13:52:40.993Z,6.72
2022-10-18T13:55:36.480Z,7.50
2022-10-18T13:58:44.621Z,10.55
2022-10-18T14:01:42.495Z,9.70
2022-10-18T14:04:38.902Z,5.72
2022-10-18T14:07:08.444Z,11.85
2022-10-18T14:09:49.995Z,6.83
2022-10-18T14:12:46.477Z,6.28
2022-10-18T14:15:27.429Z,6.72
2022-10-18T14:18:15.180Z,6.57
2022-10-18T14:21:08.649Z,12.93
2022-10-18T14:23:42.467Z,6.30
2022-10-18T14:26:15.286Z,9.20
2022-10-18T14:28:59.149Z,8.57
2022-10-18T14:31:27.800Z,9.25
2022-10-18T14:33:58.539Z,8.45
2022-10-18T14:36:33.846Z,8.33
2022-10-18T14:39:05.026Z,17.83
2022-10-18T14:41:51.375Z,12.63
2022-10-18T14:44:21.022Z,9.07
2022-10-18T14:47:09.512Z,12.95
2022-10-18T14:49:44.719Z,9.10
2022-10-18T14:52:21.971Z,10.73
2022-10-18T14:54:51.168Z,10.93
2022-10-18T14:57:35.271Z,9.85
2022-10-18T15:00:08.621Z,8.60
2022-10-18T15:02:39.476Z,10.37
2022-10-18T15:05:16.520Z,10.80
2022-10-18T15:07:44.830Z,9.60
2022-10-18T15:10:27.800Z,10.60
2022-10-18T15:13:16.201Z,6.68
2022-10-18T15:15:44.605Z,12.33
2022-10-18T15:18:24.526Z,14.60
2022-10-18T15:21:22.767Z,8.20
2022-10-18T15:23:51.311Z,12.45
2022-10-18T15:26:31.181Z,10.68
2022-10-18T15:29:01.531Z,10.33
2022-10-18T15:31:39.923Z,7.75
2022-10-18T15:34:22.441Z,7.40
2022-10-18T15:36:51.675Z,9.20
2022-10-18T15:39:29.275Z,9.00
2022-10-18T15:42:02.229Z,8.97
2022-10-18T15:44:51.352Z,8.90
2022-10-18T15:47:21.603Z,13.63
2022-10-18T15:49:56.053Z,10.02
2022-10-18T15:52:42.708Z,10.82
2022-10-18T15:55:31.524Z,8.47
2022-10-18T15:58:48.769Z,8.45
2022-10-18T16:01:23.197Z,11.82
2022-10-18T16:03:52.045Z,9.23
2022-10-18T16:06:19.338Z,12.38
2022-10-18T16:08:50.514Z,10.60
2022-10-18T16:11:25.574Z,10.38
2022-10-18T16:13:56.459Z,12.07
2022-10-18T16:16:29.406Z,11.65
2022-10-18T16:18:57.595Z,10.82
2022-10-18T16:21:31.821Z,11.27
2022-10-18T16:23:59.159Z,16.10
2022-10-18T16:26:27.704Z,11.88
2022-10-18T16:28:55.910Z,9.48
2022-10-18T16:31:30.157Z,10.13
2022-10-18T16:33:57.878Z,9.30
2022-10-18T16:36:28.991Z,11.48
2022-10-18T16:38:57.895Z,12.68
2022-10-18T16:41:25.244Z,9.40
2022-10-18T16:43:52.206Z,13.32
2022-10-18T16:46:28.851Z,11.93
2022-10-18T16:48:57.005Z,11.13
2022-10-18T16:51:24.783Z,8.57
2022-10-18T16:53:53.344Z,11.63
2022-10-18T16:56:28.552Z,10.40
2022-10-18T16:58:55.968Z,11.10
2022-10-18T17:01:24.641Z,9.55
2022-10-18T17:03:53.017Z,9.50
2022-10-18T17:06:29.378Z,11.40
2022-10-18T17:08:57.972Z,9.50
2022-10-18T17:11:27.559Z,13.60
2022-10-18T17:13:55.210Z,15.10
2022-10-18T17:16:34.121Z,13.73
2022-10-18T17:19:05.644Z,12.30
2022-10-18T17:21:33.442Z,11.80
2022-10-18T17:24:05.736Z,13.17
2022-10-18T17:26:34.241Z,10.75
2022-10-18T17:29:05.452Z,12.50
2022-10-18T17:31:33.505Z,12.15
2022-10-18T17:34:01.784Z,11.70
2022-10-18T17:36:31.654Z,11.67
2022-10-18T17:38:59.251Z,9.10
2022-10-18T17:41:26.304Z,13.25
2022-10-18T17:43:53.286Z,15.63
2022-10-18T17:46:20.484Z,10.48
2022-10-18T17:48:47.883Z,12.23
2022-10-18T17:51:17.000Z,14.90
2022-10-18T17:53:44.665Z,12.05
2022-10-18T17:56:13.007Z,13.27
2022-10-18T17:58:43.037Z,12.30
2022-10-18T18:01:21.244Z,11.47
2022-10-18T18:03:48.165Z,11.10
2022-10-18T18:06:20.329Z,9.75
2022-10-18T18:08:48.475Z,13.52
2022-10-18T18:11:17.271Z,10.02
2022-10-18T18:13:44.190Z,11.50
2022-10-18T18:16:19.292Z,12.00
2022-10-18T18:18:49.348Z,15.90
2022-10-18T18:21:16.606Z,19.67
2022-10-18T18:23:44.204Z,16.38
2022-10-18T18:26:11.383Z,14.43
2022-10-18T18:28:38.718Z,12.70
2022-10-18T18:31:23.415Z,17.90
2022-10-18T18:33:55.593Z,12.63
2022-10-18T18:36:24.955Z,11.90
2022-10-18T18:38:56.895Z,10.67
2022-10-18T18:41:27.139Z,18.50
2022-10-18T18:44:05.163Z,14.63
2022-10-18T18:46:38.206Z,15.75
2022-10-18T18:49:07.924Z,12.65
2022-10-18T18:51:40.049Z,13.50
2022-10-18T18:54:10.124Z,15.15
2022-10-18T18:56:37.635Z,11.20
2022-10-18T18:59:05.321Z,12.80
2022-10-18T19:01:35.833Z,16.20
2022-10-18T19:04:04.014Z,17.53
2022-10-18T19:06:43.521Z,12.68
2022-10-18T19:09:21.932Z,15.77
2022-10-18T19:11:54.420Z,17.52
2022-10-18T19:14:24.595Z,16.95
2022-10-18T19:17:01.307Z,20.57
2022-10-18T19:19:31.563Z,23.10
2022-10-18T19:22:01.875Z,17.30
2022-10-18T19:24:30.359Z,15.90
2022-10-18T19:27:04.436Z,21.10
2022-10-18T19:29:36.457Z,22.80
2022-10-18T19:32:07.223Z,20.90
2022-10-18T19:34:35.563Z,31.85
2022-10-18T19:37:02.448Z,26.15
2022-10-18T19:39:34.990Z,27.38
2022-10-18T19:42:14.700Z,30.37
2022-10-18T19:44:44.502Z,34.38
2022-10-18T19:47:14.204Z,23.52
2022-10-18T19:49:44.606Z,28.98
2022-10-18T19:52:12.350Z,24.27
2022-10-18T19:54:39.558Z,30.40
2022-10-18T19:57:06.847Z,33.28
2022-10-18T19:59:35.783Z,27.60
2022-10-18T20:02:04.568Z,25.23
2022-10-18T20:04:34.415Z,22.23
2022-10-18T20:07:02.626Z,22.57
2022-10-18T20:09:29.729Z,24.63
2022-10-18T20:11:56.629Z,28.60
2022-10-18T20:14:23.683Z,24.58
2022-10-18T20:16:50.605Z,24.77
2022-10-18T20:19:17.544Z,24.70
2022-10-18T20:21:44.461Z,25.88
2022-10-18T20:24:11.773Z,20.73
2022-10-18T20:26:39.529Z,23.85
2022-10-18T20:29:07.841Z,20.30
2022-10-18T20:31:38.179Z,23.43
2022-10-18T20:34:11.868Z,20.38
2022-10-18T20:36:38.987Z,21.13
2022-10-18T20:39:06.891Z,18.00
2022-10-18T20:41:37.899Z,22.30
2022-10-18T20:44:08.387Z,17.27
2022-10-18T20:46:37.635Z,19.42
2022-10-18T20:49:07.103Z,23.88
2022-10-18T20:51:35.193Z,21.25
2022-10-18T20:56:34.243Z,16.63
2022-10-18T20:59:01.851Z,17.77
2022-10-18T21:01:32.758Z,20.92
2022-10-18T21:04:06.255Z,20.48
2022-10-18T21:06:42.601Z,17.48
2022-10-18T21:09:19.170Z,24.73
2022-10-18T21:11:49.671Z,21.58
2022-10-18T21:14:19.713Z,20.65
2022-10-18T21:16:47.739Z,16.48
2022-10-18T21:19:26.688Z,19.73
2022-10-18T21:21:58.285Z,17.77
2022-10-18T21:24:26.489Z,20.08
2022-10-18T21:26:53.568Z,21.67
2022-10-18T21:29:22.615Z,19.85
2022-10-18T21:31:53.668Z,19.42
2022-10-18T21:34:20.958Z,22.27
2022-10-18T21:36:48.359Z,19.42
2022-10-18T21:39:20.195Z,22.98
2022-10-18T21:41:47.749Z,26.63
2022-10-18T21:44:16.119Z,22.05
2022-10-18T21:46:43.856Z,21.27
2022-10-18T21:49:11.299Z,27.58
2022-10-18T21:51:39.082Z,18.73
2022-10-18T21:54:11.194Z,21.25
2022-10-18T21:56:38.176Z,23.42
2022-10-18T21:59:05.389Z,16.73
2022-10-18T22:01:38.115Z,17.30
2022-10-18T22:04:16.306Z,24.58
2022-10-18T22:06:43.182Z,19.42
2022-10-18T22:09:10.198Z,15.60
2022-10-18T22:11:49.336Z,17.00
2022-10-18T22:14:16.371Z,16.65
2022-10-18T22:16:43.304Z,20.20
2022-10-18T22:19:10.428Z,15.00
2022-10-18T22:21:37.356Z,15.20
2022-10-18T22:24:08.720Z,18.80
2022-10-18T22:26:40.075Z,16.45
2022-10-18T22:29:12.491Z,19.63
2022-10-18T22:31:44.369Z,17.83
2022-10-18T22:34:16.407Z,13.25
2022-10-18T22:36:43.455Z,14.20
2022-10-18T22:39:14.159Z,16.17
2022-10-18T22:41:41.998Z,37.90
2022-10-18T22:44:12.007Z,26.17
2022-10-18T22:46:40.160Z,34.85
2022-10-18T22:49:07.599Z,34.43
2022-10-18T22:54:06.847Z,21.92
2022-10-18T22:56:33.811Z,20.67
2022-10-18T22:59:00.784Z,20.23
2022-10-18T23:01:27.737Z,26.70
2022-10-18T23:03:56.852Z,19.60
2022-10-18T23:06:33.699Z,21.25
2022-10-18T23:09:05.209Z,20.95
2022-10-18T23:11:33.511Z,28.75
2022-10-18T23:14:02.920Z,30.73
2022-10-18T23:16:30.229Z,30.42
2022-10-18T23:18:59.279Z,26.30
2022-10-18T23:21:28.640Z,33.75
2022-10-18T23:23:56.986Z,37.17
2022-10-18T23:26:26.723Z,24.47
2022-10-18T23:28:55.031Z,24.80
2022-10-18T23:31:25.560Z,34.50
2022-10-18T23:33:55.044Z,34.80
2022-10-18T23:36:22.920Z,24.63
2022-10-18T23:38:50.201Z,21.37
2022-10-18T23:41:18.088Z,29.13
2022-10-18T23:43:45.568Z,28.88
2022-10-18T23:46:14.289Z,26.77
2022-10-18T23:48:41.420Z,20.17
2022-10-18T23:51:09.135Z,20.20
2022-10-18T23:53:36.761Z,21.88
2022-10-18T23:56:13.722Z,15.23
2022-10-18T23:58:41.118Z,19.83
